Aviation Digital Data Service (ADDS)

Output produced by METARs form (1656 UTC 16 June 2019)
found at http://www.aviationweather.gov/metar/data/
 
METAR text: YMML 161630Z 36009KT 9999 SCT044 08/06 Q1023 NOSIG
Conditions at: YMML (MELBOURNE INTL A, AU) observed 1630 UTC 16 June 2019
Temperature: 8.0°C (46°F)
Dewpoint: 6.0°C (43°F) [RH = 87%]
Pressure (altimeter): 30.21 inches Hg (1023.0 mb)
Winds: from the N (360 degrees) at 10 MPH (9 knots; 4.6 m/s)
Visibility: 6 or more miles (10+ km)
Ceiling: at least 12,000 feet AGL
Clouds: scattered clouds at 4400 feet AGL
Weather: no significant weather observed at this time

METAR text: YMML 161600Z 35009KT 9999 BKN043 09/06 Q1022
Conditions at: YMML (MELBOURNE INTL A, AU) observed 1600 UTC 16 June 2019
Temperature: 9.0°C (48°F)
Dewpoint: 6.0°C (43°F) [RH = 81%]
Pressure (altimeter): 30.18 inches Hg (1022.0 mb)
Winds: from the N (350 degrees) at 10 MPH (9 knots; 4.6 m/s)
Visibility: 6 or more miles (10+ km)
Ceiling: 4300 feet AGL
Clouds: broken clouds at 4300 feet AGL
Weather: no significant weather observed at this time

METAR text: YMML 161530Z 35009KT 9999 BKN042 09/06 Q1023 NOSIG
Conditions at: YMML (MELBOURNE INTL A, AU) observed 1530 UTC 16 June 2019
Temperature: 9.0°C (48°F)
Dewpoint: 6.0°C (43°F) [RH = 81%]
Pressure (altimeter): 30.21 inches Hg (1023.0 mb)
Winds: from the N (350 degrees) at 10 MPH (9 knots; 4.6 m/s)
Visibility: 6 or more miles (10+ km)
Ceiling: 4200 feet AGL
Clouds: broken clouds at 4200 feet AGL
Weather: no significant weather observed at this time

METAR text: YMML 161500Z 36009KT 9999 SCT040 09/06 Q1023
Conditions at: YMML (MELBOURNE INTL A, AU) observed 1500 UTC 16 June 2019
Temperature: 9.0°C (48°F)
Dewpoint: 6.0°C (43°F) [RH = 81%]
Pressure (altimeter): 30.21 inches Hg (1023.0 mb)
Winds: from the N (360 degrees) at 10 MPH (9 knots; 4.6 m/s)
Visibility: 6 or more miles (10+ km)
Ceiling: at least 12,000 feet AGL
Clouds: scattered clouds at 4000 feet AGL
Weather: no significant weather observed at this time

METAR text: YMML 161430Z 36009KT 9999 BKN040 09/06 Q1023 NOSIG
Conditions at: YMML (MELBOURNE INTL A, AU) observed 1430 UTC 16 June 2019
Temperature: 9.0°C (48°F)
Dewpoint: 6.0°C (43°F) [RH = 81%]
Pressure (altimeter): 30.21 inches Hg (1023.0 mb)
Winds: from the N (360 degrees) at 10 MPH (9 knots; 4.6 m/s)
Visibility: 6 or more miles (10+ km)
Ceiling: 4000 feet AGL
Clouds: broken clouds at 4000 feet AGL
Weather: no significant weather observed at this time

METAR text: YMML 161400Z 36009KT 9999 BKN039 09/06 Q1023
Conditions at: YMML (MELBOURNE INTL A, AU) observed 1400 UTC 16 June 2019
Temperature: 9.0°C (48°F)
Dewpoint: 6.0°C (43°F) [RH = 81%]
Pressure (altimeter): 30.21 inches Hg (1023.0 mb)
Winds: from the N (360 degrees) at 10 MPH (9 knots; 4.6 m/s)
Visibility: 6 or more miles (10+ km)
Ceiling: 3900 feet AGL
Clouds: broken clouds at 3900 feet AGL
Weather: no significant weather observed at this time

METAR text: YMML 161330Z 36010KT 9999 FEW042 09/06 Q1023 NOSIG
Conditions at: YMML (MELBOURNE INTL A, AU) observed 1330 UTC 16 June 2019
Temperature: 9.0°C (48°F)
Dewpoint: 6.0°C (43°F) [RH = 81%]
Pressure (altimeter): 30.21 inches Hg (1023.0 mb)
Winds: from the N (360 degrees) at 12 MPH (10 knots; 5.1 m/s)
Visibility: 6 or more miles (10+ km)
Ceiling: at least 12,000 feet AGL
Clouds: few clouds at 4200 feet AGL
Weather: no significant weather observed at this time

METAR text: YMML 161300Z 36010KT 9999 FEW042 08/06 Q1023
Conditions at: YMML (MELBOURNE INTL A, AU) observed 1300 UTC 16 June 2019
Temperature: 8.0°C (46°F)
Dewpoint: 6.0°C (43°F) [RH = 87%]
Pressure (altimeter): 30.21 inches Hg (1023.0 mb)
Winds: from the N (360 degrees) at 12 MPH (10 knots; 5.1 m/s)
Visibility: 6 or more miles (10+ km)
Ceiling: at least 12,000 feet AGL
Clouds: few clouds at 4200 feet AGL
Weather: no significant weather observed at this time

METAR text: YMML 161230Z 36010KT 9999 FEW040 09/06 Q1023 NOSIG
Conditions at: YMML (MELBOURNE INTL A, AU) observed 1230 UTC 16 June 2019
Temperature: 9.0°C (48°F)
Dewpoint: 6.0°C (43°F) [RH = 81%]
Pressure (altimeter): 30.21 inches Hg (1023.0 mb)
Winds: from the N (360 degrees) at 12 MPH (10 knots; 5.1 m/s)
Visibility: 6 or more miles (10+ km)
Ceiling: at least 12,000 feet AGL
Clouds: few clouds at 4000 feet AGL
Weather: no significant weather observed at this time

METAR text: YMML 161200Z 36011KT 9999 FEW040 09/07 Q1023
Conditions at: YMML (MELBOURNE INTL A, AU) observed 1200 UTC 16 June 2019
Temperature: 9.0°C (48°F)
Dewpoint: 7.0°C (45°F) [RH = 87%]
Pressure (altimeter): 30.21 inches Hg (1023.0 mb)
Winds: from the N (360 degrees) at 13 MPH (11 knots; 5.7 m/s)
Visibility: 6 or more miles (10+ km)
Ceiling: at least 12,000 feet AGL
Clouds: few clouds at 4000 feet AGL
Weather: no significant weather observed at this time

METAR text: YMML 161130Z 36011KT 9999 FEW040 10/07 Q1023 NOSIG
Conditions at: YMML (MELBOURNE INTL A, AU) observed 1130 UTC 16 June 2019
Temperature: 10.0°C (50°F)
Dewpoint: 7.0°C (45°F) [RH = 82%]
Pressure (altimeter): 30.21 inches Hg (1023.0 mb)
Winds: from the N (360 degrees) at 13 MPH (11 knots; 5.7 m/s)
Visibility: 6 or more miles (10+ km)
Ceiling: at least 12,000 feet AGL
Clouds: few clouds at 4000 feet AGL
Weather: no significant weather observed at this time

METAR text: YMML 161100Z 36009KT 9999 FEW040 10/08 Q1023
Conditions at: YMML (MELBOURNE INTL A, AU) observed 1100 UTC 16 June 2019
Temperature: 10.0°C (50°F)
Dewpoint: 8.0°C (46°F) [RH = 87%]
Pressure (altimeter): 30.21 inches Hg (1023.0 mb)
Winds: from the N (360 degrees) at 10 MPH (9 knots; 4.6 m/s)
Visibility: 6 or more miles (10+ km)
Ceiling: at least 12,000 feet AGL
Clouds: few clouds at 4000 feet AGL
Weather: no significant weather observed at this time

METAR text: YMML 161030Z 36010KT CAVOK 10/08 Q1023 NOSIG
Conditions at: YMML (MELBOURNE INTL A, AU) observed 1030 UTC 16 June 2019
Temperature: 10.0°C (50°F)
Dewpoint: 8.0°C (46°F) [RH = 87%]
Pressure (altimeter): 30.21 inches Hg (1023.0 mb)
Winds: from the N (360 degrees) at 12 MPH (10 knots; 5.1 m/s)
Visibility: 6 or more miles (10+ km)
Ceiling: ceiling and visibility are OK
Clouds: unknown
Weather: no significant weather observed at this time

METAR text: YMML 161000Z 36010KT CAVOK 11/08 Q1023
Conditions at: YMML (MELBOURNE INTL A, AU) observed 1000 UTC 16 June 2019
Temperature: 11.0°C (52°F)
Dewpoint: 8.0°C (46°F) [RH = 82%]
Pressure (altimeter): 30.21 inches Hg (1023.0 mb)
Winds: from the N (360 degrees) at 12 MPH (10 knots; 5.1 m/s)
Visibility: 6 or more miles (10+ km)
Ceiling: ceiling and visibility are OK
Clouds: unknown
Weather: no significant weather observed at this time

METAR text: YMML 160930Z 35009KT CAVOK 11/08 Q1022 NOSIG
Conditions at: YMML (MELBOURNE INTL A, AU) observed 0930 UTC 16 June 2019
Temperature: 11.0°C (52°F)
Dewpoint: 8.0°C (46°F) [RH = 82%]
Pressure (altimeter): 30.18 inches Hg (1022.0 mb)
Winds: from the N (350 degrees) at 10 MPH (9 knots; 4.6 m/s)
Visibility: 6 or more miles (10+ km)
Ceiling: ceiling and visibility are OK
Clouds: unknown
Weather: no significant weather observed at this time

METAR text: YMML 160900Z 36009KT 9999 FEW038 11/08 Q1022
Conditions at: YMML (MELBOURNE INTL A, AU) observed 0900 UTC 16 June 2019
Temperature: 11.0°C (52°F)
Dewpoint: 8.0°C (46°F) [RH = 82%]
Pressure (altimeter): 30.18 inches Hg (1022.0 mb)
Winds: from the N (360 degrees) at 10 MPH (9 knots; 4.6 m/s)
Visibility: 6 or more miles (10+ km)
Ceiling: at least 12,000 feet AGL
Clouds: few clouds at 3800 feet AGL
Weather: no significant weather observed at this time

METAR text: YMML 160830Z 01007KT 9999 FEW037 SCT064 10/08 Q1022 NOSIG
Conditions at: YMML (MELBOURNE INTL A, AU) observed 0830 UTC 16 June 2019
Temperature: 10.0°C (50°F)
Dewpoint: 8.0°C (46°F) [RH = 87%]
Pressure (altimeter): 30.18 inches Hg (1022.0 mb)
Winds: from the N (10 degrees) at 8 MPH (7 knots; 3.6 m/s)
Visibility: 6 or more miles (10+ km)
Ceiling: at least 12,000 feet AGL
Clouds: few clouds at 3700 feet AGL
scattered clouds at 6400 feet AGL
Weather: no significant weather observed at this time

METAR text: YMML 160800Z 24001KT 9999 VCSH FEW015 SCT037 11/08 Q1022
Conditions at: YMML (MELBOURNE INTL A, AU) observed 0800 UTC 16 June 2019
Temperature: 11.0°C (52°F)
Dewpoint: 8.0°C (46°F) [RH = 82%]
Pressure (altimeter): 30.18 inches Hg (1022.0 mb)
Winds: from the WSW (240 degrees) at 1 MPH (1 knots; 0.5 m/s)
Visibility: 6 or more miles (10+ km)
Ceiling: at least 12,000 feet AGL
Clouds: few clouds at 1500 feet AGL
scattered clouds at 3700 feet AGL
Weather: VCSH  (showers in vicinity)

METAR text: YMML 160730Z 31004KT 230V020 9999 -SHRA FEW015 SCT036 12/08 Q1022 NOSIG
Conditions at: YMML (MELBOURNE INTL A, AU) observed 0730 UTC 16 June 2019
Temperature: 12.0°C (54°F)
Dewpoint: 8.0°C (46°F) [RH = 76%]
Pressure (altimeter): 30.18 inches Hg (1022.0 mb)
Winds: from the NW (310 degrees) at 5 MPH (4 knots; 2.1 m/s)
Visibility: 6 or more miles (10+ km)
Ceiling: at least 12,000 feet AGL
Clouds: few clouds at 1500 feet AGL
scattered clouds at 3600 feet AGL
Weather: -SHRA  (light rain showers)

METAR text: YMML 160700Z 01006KT 9999 VCSH FEW015 SCT039 12/08 Q1021
Conditions at: YMML (MELBOURNE INTL A, AU) observed 0700 UTC 16 June 2019
Temperature: 12.0°C (54°F)
Dewpoint: 8.0°C (46°F) [RH = 76%]
Pressure (altimeter): 30.15 inches Hg (1021.0 mb)
Winds: from the N (10 degrees) at 7 MPH (6 knots; 3.1 m/s)
Visibility: 6 or more miles (10+ km)
Ceiling: at least 12,000 feet AGL
Clouds: few clouds at 1500 feet AGL
scattered clouds at 3900 feet AGL
Weather: VCSH  (showers in vicinity)

METAR text: YMML 160630Z 36007KT 9999 VCSH FEW018 FEW039CB 13/08 Q1021 FM0700 36010KT 9999 -SHRA SCT025 BKN040
Conditions at: YMML (MELBOURNE INTL A, AU) observed 0630 UTC 16 June 2019
Temperature: 13.0°C (55°F)
Dewpoint: 8.0°C (46°F) [RH = 72%]
Pressure (altimeter): 30.15 inches Hg (1021.0 mb)
Winds: from the N (360 degrees) at 8 MPH (7 knots; 3.6 m/s)
Visibility: 6 or more miles (10+ km)
Ceiling: at least 12,000 feet AGL
Clouds: few clouds at 1800 feet AGL
few clouds at 3900 feet AGL
Weather: VCSH  (showers in vicinity)

METAR text: YMML 160600Z 01006KT 9999 VCSH FEW018 SCT036CB 14/09 Q1021 FM0630 36010KT 9999 -SHRA SCT025 BKN040
Conditions at: YMML (MELBOURNE INTL A, AU) observed 0600 UTC 16 June 2019
Temperature: 14.0°C (57°F)
Dewpoint: 9.0°C (48°F) [RH = 72%]
Pressure (altimeter): 30.15 inches Hg (1021.0 mb)
Winds: from the N (10 degrees) at 7 MPH (6 knots; 3.1 m/s)
Visibility: 6 or more miles (10+ km)
Ceiling: at least 12,000 feet AGL
Clouds: few clouds at 1800 feet AGL
scattered clouds at 3600 feet AGL
Weather: VCSH  (showers in vicinity)

METAR text: YMML 160530Z 36008KT 9999 VCSH FEW018 SCT040CB 14/08 Q1021 FM0630 36010KT 9999 -SHRA SCT025 BKN040
Conditions at: YMML (MELBOURNE INTL A, AU) observed 0530 UTC 16 June 2019
Temperature: 14.0°C (57°F)
Dewpoint: 8.0°C (46°F) [RH = 67%]
Pressure (altimeter): 30.15 inches Hg (1021.0 mb)
Winds: from the N (360 degrees) at 9 MPH (8 knots; 4.1 m/s)
Visibility: 6 or more miles (10+ km)
Ceiling: at least 12,000 feet AGL
Clouds: few clouds at 1800 feet AGL
scattered clouds at 4000 feet AGL
Weather: VCSH  (showers in vicinity)

METAR text: YMML 160500Z 36009KT 9999 VCSH FEW020 SCT042CB BKN290 15/09 Q1021 FM0600 36010KT 9999 -SHRA SCT025 BKN040
Conditions at: YMML (MELBOURNE INTL A, AU) observed 0500 UTC 16 June 2019
Temperature: 15.0°C (59°F)
Dewpoint: 9.0°C (48°F) [RH = 67%]
Pressure (altimeter): 30.15 inches Hg (1021.0 mb)
Winds: from the N (360 degrees) at 10 MPH (9 knots; 4.6 m/s)
Visibility: 6 or more miles (10+ km)
Ceiling: 29000 feet AGL
Clouds: few clouds at 2000 feet AGL
scattered clouds at 4200 feet AGL
broken clouds at 29000 feet AGL
Weather: VCSH  (showers in vicinity)

METAR text: YMML 160430Z 36009KT 9999 VCSH FEW020 SCT042 BKN290 15/07 Q1021 NOSIG
Conditions at: YMML (MELBOURNE INTL A, AU) observed 0430 UTC 16 June 2019
Temperature: 15.0°C (59°F)
Dewpoint: 7.0°C (45°F) [RH = 59%]
Pressure (altimeter): 30.15 inches Hg (1021.0 mb)
Winds: from the N (360 degrees) at 10 MPH (9 knots; 4.6 m/s)
Visibility: 6 or more miles (10+ km)
Ceiling: 29000 feet AGL
Clouds: few clouds at 2000 feet AGL
scattered clouds at 4200 feet AGL
broken clouds at 29000 feet AGL
Weather: VCSH  (showers in vicinity)

METAR text: YMML 160400Z 35009KT 9999 -SHRA FEW020 SCT040 BKN290 14/08 Q1021
Conditions at: YMML (MELBOURNE INTL A, AU) observed 0400 UTC 16 June 2019
Temperature: 14.0°C (57°F)
Dewpoint: 8.0°C (46°F) [RH = 67%]
Pressure (altimeter): 30.15 inches Hg (1021.0 mb)
Winds: from the N (350 degrees) at 10 MPH (9 knots; 4.6 m/s)
Visibility: 6 or more miles (10+ km)
Ceiling: 29000 feet AGL
Clouds: few clouds at 2000 feet AGL
scattered clouds at 4000 feet AGL
broken clouds at 29000 feet AGL
Weather: -SHRA  (light rain showers)

METAR text: YMML 160330Z 01009KT 9999 -SHRA FEW046 BKN290 15/09 Q1021 NOSIG
Conditions at: YMML (MELBOURNE INTL A, AU) observed 0330 UTC 16 June 2019
Temperature: 15.0°C (59°F)
Dewpoint: 9.0°C (48°F) [RH = 67%]
Pressure (altimeter): 30.15 inches Hg (1021.0 mb)
Winds: from the N (10 degrees) at 10 MPH (9 knots; 4.6 m/s)
Visibility: 6 or more miles (10+ km)
Ceiling: 29000 feet AGL
Clouds: few clouds at 4600 feet AGL
broken clouds at 29000 feet AGL
Weather: -SHRA  (light rain showers)

METAR text: YMML 160300Z 01009KT 9999 FEW046 SCT076 BKN290 15/09 Q1021
Conditions at: YMML (MELBOURNE INTL A, AU) observed 0300 UTC 16 June 2019
Temperature: 15.0°C (59°F)
Dewpoint: 9.0°C (48°F) [RH = 67%]
Pressure (altimeter): 30.15 inches Hg (1021.0 mb)
Winds: from the N (10 degrees) at 10 MPH (9 knots; 4.6 m/s)
Visibility: 6 or more miles (10+ km)
Ceiling: 29000 feet AGL
Clouds: few clouds at 4600 feet AGL
scattered clouds at 7600 feet AGL
broken clouds at 29000 feet AGL
Weather: no significant weather observed at this time

METAR text: YMML 160230Z 01010KT 9999 FEW045 SCT060 BKN290 15/09 Q1022 NOSIG
Conditions at: YMML (MELBOURNE INTL A, AU) observed 0230 UTC 16 June 2019
Temperature: 15.0°C (59°F)
Dewpoint: 9.0°C (48°F) [RH = 67%]
Pressure (altimeter): 30.18 inches Hg (1022.0 mb)
Winds: from the N (10 degrees) at 12 MPH (10 knots; 5.1 m/s)
Visibility: 6 or more miles (10+ km)
Ceiling: 29000 feet AGL
Clouds: few clouds at 4500 feet AGL
scattered clouds at 6000 feet AGL
broken clouds at 29000 feet AGL
Weather: no significant weather observed at this time

METAR text: YMML 160200Z 36010KT 9999 FEW045 BKN290 14/09 Q1022
Conditions at: YMML (MELBOURNE INTL A, AU) observed 0200 UTC 16 June 2019
Temperature: 14.0°C (57°F)
Dewpoint: 9.0°C (48°F) [RH = 72%]
Pressure (altimeter): 30.18 inches Hg (1022.0 mb)
Winds: from the N (360 degrees) at 12 MPH (10 knots; 5.1 m/s)
Visibility: 6 or more miles (10+ km)
Ceiling: 29000 feet AGL
Clouds: few clouds at 4500 feet AGL
broken clouds at 29000 feet AGL
Weather: no significant weather observed at this time

METAR text: YMML 160130Z 01012KT 9999 FEW017 SCT050 BKN290 14/09 Q1022 NOSIG
Conditions at: YMML (MELBOURNE INTL A, AU) observed 0130 UTC 16 June 2019
Temperature: 14.0°C (57°F)
Dewpoint: 9.0°C (48°F) [RH = 72%]
Pressure (altimeter): 30.18 inches Hg (1022.0 mb)
Winds: from the N (10 degrees) at 14 MPH (12 knots; 6.2 m/s)
Visibility: 6 or more miles (10+ km)
Ceiling: 29000 feet AGL
Clouds: few clouds at 1700 feet AGL
scattered clouds at 5000 feet AGL
broken clouds at 29000 feet AGL
Weather: no significant weather observed at this time

METAR text: YMML 160100Z 36011KT 9999 FEW016 SCT044 BKN058 14/09 Q1023
Conditions at: YMML (MELBOURNE INTL A, AU) observed 0100 UTC 16 June 2019
Temperature: 14.0°C (57°F)
Dewpoint: 9.0°C (48°F) [RH = 72%]
Pressure (altimeter): 30.21 inches Hg (1023.0 mb)
Winds: from the N (360 degrees) at 13 MPH (11 knots; 5.7 m/s)
Visibility: 6 or more miles (10+ km)
Ceiling: 5800 feet AGL
Clouds: few clouds at 1600 feet AGL
scattered clouds at 4400 feet AGL
broken clouds at 5800 feet AGL
Weather: no significant weather observed at this time

METAR text: YMML 160030Z 35011KT 9999 VCSH FEW016 SCT045 BKN070 13/08 Q1023 NOSIG
Conditions at: YMML (MELBOURNE INTL A, AU) observed 0030 UTC 16 June 2019
Temperature: 13.0°C (55°F)
Dewpoint: 8.0°C (46°F) [RH = 72%]
Pressure (altimeter): 30.21 inches Hg (1023.0 mb)
Winds: from the N (350 degrees) at 13 MPH (11 knots; 5.7 m/s)
Visibility: 6 or more miles (10+ km)
Ceiling: 7000 feet AGL
Clouds: few clouds at 1600 feet AGL
scattered clouds at 4500 feet AGL
broken clouds at 7000 feet AGL
Weather: VCSH  (showers in vicinity)

METAR text: YMML 160000Z 36013KT 9999 VCSH SCT045 BKN054 12/09 Q1023
Conditions at: YMML (MELBOURNE INTL A, AU) observed 0000 UTC 16 June 2019
Temperature: 12.0°C (54°F)
Dewpoint: 9.0°C (48°F) [RH = 82%]
Pressure (altimeter): 30.21 inches Hg (1023.0 mb)
Winds: from the N (360 degrees) at 15 MPH (13 knots; 6.7 m/s)
Visibility: 6 or more miles (10+ km)
Ceiling: 5400 feet AGL
Clouds: scattered clouds at 4500 feet AGL
broken clouds at 5400 feet AGL
Weather: VCSH  (showers in vicinity)

METAR text: YMML 152330Z 36010KT 9999 VCSH FEW044 BKN048 11/08 Q1023 NOSIG
Conditions at: YMML (MELBOURNE INTL A, AU) observed 2330 UTC 15 June 2019
Temperature: 11.0°C (52°F)
Dewpoint: 8.0°C (46°F) [RH = 82%]
Pressure (altimeter): 30.21 inches Hg (1023.0 mb)
Winds: from the N (360 degrees) at 12 MPH (10 knots; 5.1 m/s)
Visibility: 6 or more miles (10+ km)
Ceiling: 4800 feet AGL
Clouds: few clouds at 4400 feet AGL
broken clouds at 4800 feet AGL
Weather: VCSH  (showers in vicinity)

METAR text: YMML 152300Z 36010KT 9999 VCSH FEW015 BKN048 11/08 Q1023 FM0000 36010KT 9999 -SHRA SCT025 BKN040
Conditions at: YMML (MELBOURNE INTL A, AU) observed 2300 UTC 15 June 2019
Temperature: 11.0°C (52°F)
Dewpoint: 8.0°C (46°F) [RH = 82%]
Pressure (altimeter): 30.21 inches Hg (1023.0 mb)
Winds: from the N (360 degrees) at 12 MPH (10 knots; 5.1 m/s)
Visibility: 6 or more miles (10+ km)
Ceiling: 4800 feet AGL
Clouds: few clouds at 1500 feet AGL
broken clouds at 4800 feet AGL
Weather: VCSH  (showers in vicinity)

METAR text: YMML 152230Z 36012KT 9999 VCSH FEW015 SCT045 BKN071 11/08 Q1022 FM0000 36010KT 9999 -SHRA SCT025 BKN040
Conditions at: YMML (MELBOURNE INTL A, AU) observed 2230 UTC 15 June 2019
Temperature: 11.0°C (52°F)
Dewpoint: 8.0°C (46°F) [RH = 82%]
Pressure (altimeter): 30.18 inches Hg (1022.0 mb)
Winds: from the N (360 degrees) at 14 MPH (12 knots; 6.2 m/s)
Visibility: 6 or more miles (10+ km)
Ceiling: 7100 feet AGL
Clouds: few clouds at 1500 feet AGL
scattered clouds at 4500 feet AGL
broken clouds at 7100 feet AGL
Weather: VCSH  (showers in vicinity)

METAR text: YMML 152200Z 36012KT 9999 -SHRA FEW015 SCT040 BKN044 10/08 Q1022
Conditions at: YMML (MELBOURNE INTL A, AU) observed 2200 UTC 15 June 2019
Temperature: 10.0°C (50°F)
Dewpoint: 8.0°C (46°F) [RH = 87%]
Pressure (altimeter): 30.18 inches Hg (1022.0 mb)
Winds: from the N (360 degrees) at 14 MPH (12 knots; 6.2 m/s)
Visibility: 6 or more miles (10+ km)
Ceiling: 4400 feet AGL
Clouds: few clouds at 1500 feet AGL
scattered clouds at 4000 feet AGL
broken clouds at 4400 feet AGL
Weather: -SHRA  (light rain showers)

METAR text: YMML 152130Z 36013KT 9999 FEW015 SCT046 BKN071 10/08 Q1022 NOSIG
Conditions at: YMML (MELBOURNE INTL A, AU) observed 2130 UTC 15 June 2019
Temperature: 10.0°C (50°F)
Dewpoint: 8.0°C (46°F) [RH = 87%]
Pressure (altimeter): 30.18 inches Hg (1022.0 mb)
Winds: from the N (360 degrees) at 15 MPH (13 knots; 6.7 m/s)
Visibility: 6 or more miles (10+ km)
Ceiling: 7100 feet AGL
Clouds: few clouds at 1500 feet AGL
scattered clouds at 4600 feet AGL
broken clouds at 7100 feet AGL
Weather: no significant weather observed at this time

METAR text: YMML 152100Z 35009KT CAVOK 10/08 Q1022
Conditions at: YMML (MELBOURNE INTL A, AU) observed 2100 UTC 15 June 2019
Temperature: 10.0°C (50°F)
Dewpoint: 8.0°C (46°F) [RH = 87%]
Pressure (altimeter): 30.18 inches Hg (1022.0 mb)
Winds: from the N (350 degrees) at 10 MPH (9 knots; 4.6 m/s)
Visibility: 6 or more miles (10+ km)
Ceiling: ceiling and visibility are OK
Clouds: unknown
Weather: no significant weather observed at this time

METAR text: YMML 152030Z 36011KT CAVOK 09/08 Q1021 NOSIG
Conditions at: YMML (MELBOURNE INTL A, AU) observed 2030 UTC 15 June 2019
Temperature: 9.0°C (48°F)
Dewpoint: 8.0°C (46°F) [RH = 93%]
Pressure (altimeter): 30.15 inches Hg (1021.0 mb)
Winds: from the N (360 degrees) at 13 MPH (11 knots; 5.7 m/s)
Visibility: 6 or more miles (10+ km)
Ceiling: ceiling and visibility are OK
Clouds: unknown
Weather: no significant weather observed at this time

METAR text: YMML 152000Z 35011KT CAVOK 10/08 Q1021
Conditions at: YMML (MELBOURNE INTL A, AU) observed 2000 UTC 15 June 2019
Temperature: 10.0°C (50°F)
Dewpoint: 8.0°C (46°F) [RH = 87%]
Pressure (altimeter): 30.15 inches Hg (1021.0 mb)
Winds: from the N (350 degrees) at 13 MPH (11 knots; 5.7 m/s)
Visibility: 6 or more miles (10+ km)
Ceiling: ceiling and visibility are OK
Clouds: unknown
Weather: no significant weather observed at this time

METAR text: YMML 151930Z 36012KT CAVOK 10/08 Q1021 NOSIG
Conditions at: YMML (MELBOURNE INTL A, AU) observed 1930 UTC 15 June 2019
Temperature: 10.0°C (50°F)
Dewpoint: 8.0°C (46°F) [RH = 87%]
Pressure (altimeter): 30.15 inches Hg (1021.0 mb)
Winds: from the N (360 degrees) at 14 MPH (12 knots; 6.2 m/s)
Visibility: 6 or more miles (10+ km)
Ceiling: ceiling and visibility are OK
Clouds: unknown
Weather: no significant weather observed at this time

METAR text: YMML 151900Z 36011KT CAVOK 09/07 Q1020
Conditions at: YMML (MELBOURNE INTL A, AU) observed 1900 UTC 15 June 2019
Temperature: 9.0°C (48°F)
Dewpoint: 7.0°C (45°F) [RH = 87%]
Pressure (altimeter): 30.12 inches Hg (1020.0 mb)
Winds: from the N (360 degrees) at 13 MPH (11 knots; 5.7 m/s)
Visibility: 6 or more miles (10+ km)
Ceiling: ceiling and visibility are OK
Clouds: unknown
Weather: no significant weather observed at this time

METAR text: YMML 151830Z 36010KT CAVOK 09/07 Q1020 NOSIG
Conditions at: YMML (MELBOURNE INTL A, AU) observed 1830 UTC 15 June 2019
Temperature: 9.0°C (48°F)
Dewpoint: 7.0°C (45°F) [RH = 87%]
Pressure (altimeter): 30.12 inches Hg (1020.0 mb)
Winds: from the N (360 degrees) at 12 MPH (10 knots; 5.1 m/s)
Visibility: 6 or more miles (10+ km)
Ceiling: ceiling and visibility are OK
Clouds: unknown
Weather: no significant weather observed at this time

METAR text: YMML 151800Z 36010KT CAVOK 10/07 Q1020
Conditions at: YMML (MELBOURNE INTL A, AU) observed 1800 UTC 15 June 2019
Temperature: 10.0°C (50°F)
Dewpoint: 7.0°C (45°F) [RH = 82%]
Pressure (altimeter): 30.12 inches Hg (1020.0 mb)
Winds: from the N (360 degrees) at 12 MPH (10 knots; 5.1 m/s)
Visibility: 6 or more miles (10+ km)
Ceiling: ceiling and visibility are OK
Clouds: unknown
Weather: no significant weather observed at this time

METAR text: YMML 151730Z 36010KT CAVOK 09/07 Q1021 NOSIG
Conditions at: YMML (MELBOURNE INTL A, AU) observed 1730 UTC 15 June 2019
Temperature: 9.0°C (48°F)
Dewpoint: 7.0°C (45°F) [RH = 87%]
Pressure (altimeter): 30.15 inches Hg (1021.0 mb)
Winds: from the N (360 degrees) at 12 MPH (10 knots; 5.1 m/s)
Visibility: 6 or more miles (10+ km)
Ceiling: ceiling and visibility are OK
Clouds: unknown
Weather: no significant weather observed at this time

METAR text: YMML 151700Z 36011KT CAVOK 10/07 Q1021
Conditions at: YMML (MELBOURNE INTL A, AU) observed 1700 UTC 15 June 2019
Temperature: 10.0°C (50°F)
Dewpoint: 7.0°C (45°F) [RH = 82%]
Pressure (altimeter): 30.15 inches Hg (1021.0 mb)
Winds: from the N (360 degrees) at 13 MPH (11 knots; 5.7 m/s)
Visibility: 6 or more miles (10+ km)
Ceiling: ceiling and visibility are OK
Clouds: unknown
Weather: no significant weather observed at this time

METAR text: YMML 151630Z 35012KT CAVOK 09/07 Q1021 NOSIG
Conditions at: YMML (MELBOURNE INTL A, AU) observed 1630 UTC 15 June 2019
Temperature: 9.0°C (48°F)
Dewpoint: 7.0°C (45°F) [RH = 87%]
Pressure (altimeter): 30.15 inches Hg (1021.0 mb)
Winds: from the N (350 degrees) at 14 MPH (12 knots; 6.2 m/s)
Visibility: 6 or more miles (10+ km)
Ceiling: ceiling and visibility are OK
Clouds: unknown
Weather: no significant weather observed at this time

METAR text: YMML 151600Z 36012KT CAVOK 09/07 Q1021
Conditions at: YMML (MELBOURNE INTL A, AU) observed 1600 UTC 15 June 2019
Temperature: 9.0°C (48°F)
Dewpoint: 7.0°C (45°F) [RH = 87%]
Pressure (altimeter): 30.15 inches Hg (1021.0 mb)
Winds: from the N (360 degrees) at 14 MPH (12 knots; 6.2 m/s)
Visibility: 6 or more miles (10+ km)
Ceiling: ceiling and visibility are OK
Clouds: unknown
Weather: no significant weather observed at this time

METAR text: YMML 151530Z 36013KT CAVOK 09/07 Q1021 NOSIG
Conditions at: YMML (MELBOURNE INTL A, AU) observed 1530 UTC 15 June 2019
Temperature: 9.0°C (48°F)
Dewpoint: 7.0°C (45°F) [RH = 87%]
Pressure (altimeter): 30.15 inches Hg (1021.0 mb)
Winds: from the N (360 degrees) at 15 MPH (13 knots; 6.7 m/s)
Visibility: 6 or more miles (10+ km)
Ceiling: ceiling and visibility are OK
Clouds: unknown
Weather: no significant weather observed at this time

METAR text: YMML 151500Z 36013KT CAVOK 08/07 Q1021
Conditions at: YMML (MELBOURNE INTL A, AU) observed 1500 UTC 15 June 2019
Temperature: 8.0°C (46°F)
Dewpoint: 7.0°C (45°F) [RH = 93%]
Pressure (altimeter): 30.15 inches Hg (1021.0 mb)
Winds: from the N (360 degrees) at 15 MPH (13 knots; 6.7 m/s)
Visibility: 6 or more miles (10+ km)
Ceiling: ceiling and visibility are OK
Clouds: unknown
Weather: no significant weather observed at this time

METAR text: YMML 151430Z 36013KT CAVOK 08/07 Q1021 NOSIG
Conditions at: YMML (MELBOURNE INTL A, AU) observed 1430 UTC 15 June 2019
Temperature: 8.0°C (46°F)
Dewpoint: 7.0°C (45°F) [RH = 93%]
Pressure (altimeter): 30.15 inches Hg (1021.0 mb)
Winds: from the N (360 degrees) at 15 MPH (13 knots; 6.7 m/s)
Visibility: 6 or more miles (10+ km)
Ceiling: ceiling and visibility are OK
Clouds: unknown
Weather: no significant weather observed at this time

METAR text: YMML 151400Z 36013KT CAVOK 09/07 Q1021
Conditions at: YMML (MELBOURNE INTL A, AU) observed 1400 UTC 15 June 2019
Temperature: 9.0°C (48°F)
Dewpoint: 7.0°C (45°F) [RH = 87%]
Pressure (altimeter): 30.15 inches Hg (1021.0 mb)
Winds: from the N (360 degrees) at 15 MPH (13 knots; 6.7 m/s)
Visibility: 6 or more miles (10+ km)
Ceiling: ceiling and visibility are OK
Clouds: unknown
Weather: no significant weather observed at this time

METAR text: YMML 151330Z 36012KT CAVOK 09/07 Q1021 NOSIG
Conditions at: YMML (MELBOURNE INTL A, AU) observed 1330 UTC 15 June 2019
Temperature: 9.0°C (48°F)
Dewpoint: 7.0°C (45°F) [RH = 87%]
Pressure (altimeter): 30.15 inches Hg (1021.0 mb)
Winds: from the N (360 degrees) at 14 MPH (12 knots; 6.2 m/s)
Visibility: 6 or more miles (10+ km)
Ceiling: ceiling and visibility are OK
Clouds: unknown
Weather: no significant weather observed at this time

METAR text: YMML 151300Z 36011KT CAVOK 09/07 Q1022
Conditions at: YMML (MELBOURNE INTL A, AU) observed 1300 UTC 15 June 2019
Temperature: 9.0°C (48°F)
Dewpoint: 7.0°C (45°F) [RH = 87%]
Pressure (altimeter): 30.18 inches Hg (1022.0 mb)
Winds: from the N (360 degrees) at 13 MPH (11 knots; 5.7 m/s)
Visibility: 6 or more miles (10+ km)
Ceiling: ceiling and visibility are OK
Clouds: unknown
Weather: no significant weather observed at this time

METAR text: YMML 151230Z 36010KT CAVOK 09/07 Q1021 NOSIG
Conditions at: YMML (MELBOURNE INTL A, AU) observed 1230 UTC 15 June 2019
Temperature: 9.0°C (48°F)
Dewpoint: 7.0°C (45°F) [RH = 87%]
Pressure (altimeter): 30.15 inches Hg (1021.0 mb)
Winds: from the N (360 degrees) at 12 MPH (10 knots; 5.1 m/s)
Visibility: 6 or more miles (10+ km)
Ceiling: ceiling and visibility are OK
Clouds: unknown
Weather: no significant weather observed at this time

METAR text: YMML 151200Z 36013KT CAVOK 09/07 Q1022
Conditions at: YMML (MELBOURNE INTL A, AU) observed 1200 UTC 15 June 2019
Temperature: 9.0°C (48°F)
Dewpoint: 7.0°C (45°F) [RH = 87%]
Pressure (altimeter): 30.18 inches Hg (1022.0 mb)
Winds: from the N (360 degrees) at 15 MPH (13 knots; 6.7 m/s)
Visibility: 6 or more miles (10+ km)
Ceiling: ceiling and visibility are OK
Clouds: unknown
Weather: no significant weather observed at this time

METAR text: YMML 151130Z 35012KT CAVOK 10/07 Q1022 NOSIG
Conditions at: YMML (MELBOURNE INTL A, AU) observed 1130 UTC 15 June 2019
Temperature: 10.0°C (50°F)
Dewpoint: 7.0°C (45°F) [RH = 82%]
Pressure (altimeter): 30.18 inches Hg (1022.0 mb)
Winds: from the N (350 degrees) at 14 MPH (12 knots; 6.2 m/s)
Visibility: 6 or more miles (10+ km)
Ceiling: ceiling and visibility are OK
Clouds: unknown
Weather: no significant weather observed at this time

METAR text: YMML 151100Z 34011KT CAVOK 10/08 Q1022
Conditions at: YMML (MELBOURNE INTL A, AU) observed 1100 UTC 15 June 2019
Temperature: 10.0°C (50°F)
Dewpoint: 8.0°C (46°F) [RH = 87%]
Pressure (altimeter): 30.18 inches Hg (1022.0 mb)
Winds: from the NNW (340 degrees) at 13 MPH (11 knots; 5.7 m/s)
Visibility: 6 or more miles (10+ km)
Ceiling: ceiling and visibility are OK
Clouds: unknown
Weather: no significant weather observed at this time

METAR text: YMML 151030Z 36010KT CAVOK 10/08 Q1022 NOSIG
Conditions at: YMML (MELBOURNE INTL A, AU) observed 1030 UTC 15 June 2019
Temperature: 10.0°C (50°F)
Dewpoint: 8.0°C (46°F) [RH = 87%]
Pressure (altimeter): 30.18 inches Hg (1022.0 mb)
Winds: from the N (360 degrees) at 12 MPH (10 knots; 5.1 m/s)
Visibility: 6 or more miles (10+ km)
Ceiling: ceiling and visibility are OK
Clouds: unknown
Weather: no significant weather observed at this time

METAR text: YMML 151000Z 01009KT CAVOK 10/08 Q1022
Conditions at: YMML (MELBOURNE INTL A, AU) observed 1000 UTC 15 June 2019
Temperature: 10.0°C (50°F)
Dewpoint: 8.0°C (46°F) [RH = 87%]
Pressure (altimeter): 30.18 inches Hg (1022.0 mb)
Winds: from the N (10 degrees) at 10 MPH (9 knots; 4.6 m/s)
Visibility: 6 or more miles (10+ km)
Ceiling: ceiling and visibility are OK
Clouds: unknown
Weather: no significant weather observed at this time

METAR text: YMML 150930Z 01009KT CAVOK 09/08 Q1022 NOSIG
Conditions at: YMML (MELBOURNE INTL A, AU) observed 0930 UTC 15 June 2019
Temperature: 9.0°C (48°F)
Dewpoint: 8.0°C (46°F) [RH = 93%]
Pressure (altimeter): 30.18 inches Hg (1022.0 mb)
Winds: from the N (10 degrees) at 10 MPH (9 knots; 4.6 m/s)
Visibility: 6 or more miles (10+ km)
Ceiling: ceiling and visibility are OK
Clouds: unknown
Weather: no significant weather observed at this time

METAR text: YMML 150900Z 01008KT CAVOK 09/08 Q1021
Conditions at: YMML (MELBOURNE INTL A, AU) observed 0900 UTC 15 June 2019
Temperature: 9.0°C (48°F)
Dewpoint: 8.0°C (46°F) [RH = 93%]
Pressure (altimeter): 30.15 inches Hg (1021.0 mb)
Winds: from the N (10 degrees) at 9 MPH (8 knots; 4.1 m/s)
Visibility: 6 or more miles (10+ km)
Ceiling: ceiling and visibility are OK
Clouds: unknown
Weather: no significant weather observed at this time

METAR text: YMML 150830Z 36007KT 9999 FEW030 SCT063 10/08 Q1021 NOSIG
Conditions at: YMML (MELBOURNE INTL A, AU) observed 0830 UTC 15 June 2019
Temperature: 10.0°C (50°F)
Dewpoint: 8.0°C (46°F) [RH = 87%]
Pressure (altimeter): 30.15 inches Hg (1021.0 mb)
Winds: from the N (360 degrees) at 8 MPH (7 knots; 3.6 m/s)
Visibility: 6 or more miles (10+ km)
Ceiling: at least 12,000 feet AGL
Clouds: few clouds at 3000 feet AGL
scattered clouds at 6300 feet AGL
Weather: no significant weather observed at this time

METAR text: YMML 150800Z 01005KT 9999 FEW030 SCT050 10/08 Q1021
Conditions at: YMML (MELBOURNE INTL A, AU) observed 0800 UTC 15 June 2019
Temperature: 10.0°C (50°F)
Dewpoint: 8.0°C (46°F) [RH = 87%]
Pressure (altimeter): 30.15 inches Hg (1021.0 mb)
Winds: from the N (10 degrees) at 6 MPH (5 knots; 2.6 m/s)
Visibility: 6 or more miles (10+ km)
Ceiling: at least 12,000 feet AGL
Clouds: few clouds at 3000 feet AGL
scattered clouds at 5000 feet AGL
Weather: no significant weather observed at this time

METAR text: YMML 150730Z 01005KT 9999 FEW030 SCT050 10/08 Q1021 NOSIG
Conditions at: YMML (MELBOURNE INTL A, AU) observed 0730 UTC 15 June 2019
Temperature: 10.0°C (50°F)
Dewpoint: 8.0°C (46°F) [RH = 87%]
Pressure (altimeter): 30.15 inches Hg (1021.0 mb)
Winds: from the N (10 degrees) at 6 MPH (5 knots; 2.6 m/s)
Visibility: 6 or more miles (10+ km)
Ceiling: at least 12,000 feet AGL
Clouds: few clouds at 3000 feet AGL
scattered clouds at 5000 feet AGL
Weather: no significant weather observed at this time

METAR text: YMML 150700Z 36005KT 9999 FEW030 SCT051 12/08 Q1020
Conditions at: YMML (MELBOURNE INTL A, AU) observed 0700 UTC 15 June 2019
Temperature: 12.0°C (54°F)
Dewpoint: 8.0°C (46°F) [RH = 76%]
Pressure (altimeter): 30.12 inches Hg (1020.0 mb)
Winds: from the N (360 degrees) at 6 MPH (5 knots; 2.6 m/s)
Visibility: 6 or more miles (10+ km)
Ceiling: at least 12,000 feet AGL
Clouds: few clouds at 3000 feet AGL
scattered clouds at 5100 feet AGL
Weather: no significant weather observed at this time

METAR text: YMML 150630Z 36005KT 9999 FEW030 SCT054 12/08 Q1020 NOSIG
Conditions at: YMML (MELBOURNE INTL A, AU) observed 0630 UTC 15 June 2019
Temperature: 12.0°C (54°F)
Dewpoint: 8.0°C (46°F) [RH = 76%]
Pressure (altimeter): 30.12 inches Hg (1020.0 mb)
Winds: from the N (360 degrees) at 6 MPH (5 knots; 2.6 m/s)
Visibility: 6 or more miles (10+ km)
Ceiling: at least 12,000 feet AGL
Clouds: few clouds at 3000 feet AGL
scattered clouds at 5400 feet AGL
Weather: no significant weather observed at this time

METAR text: YMML 150600Z 26004KT 9999 FEW030 SCT055 14/07 Q1020
Conditions at: YMML (MELBOURNE INTL A, AU) observed 0600 UTC 15 June 2019
Temperature: 14.0°C (57°F)
Dewpoint: 7.0°C (45°F) [RH = 63%]
Pressure (altimeter): 30.12 inches Hg (1020.0 mb)
Winds: from the W (260 degrees) at 5 MPH (4 knots; 2.1 m/s)
Visibility: 6 or more miles (10+ km)
Ceiling: at least 12,000 feet AGL
Clouds: few clouds at 3000 feet AGL
scattered clouds at 5500 feet AGL
Weather: no significant weather observed at this time

METAR text: YMML 150530Z 23005KT 9999 FEW028 SCT035 BKN055 14/07 Q1020 FM0600 34008KT 9999 SCT035
Conditions at: YMML (MELBOURNE INTL A, AU) observed 0530 UTC 15 June 2019
Temperature: 14.0°C (57°F)
Dewpoint: 7.0°C (45°F) [RH = 63%]
Pressure (altimeter): 30.12 inches Hg (1020.0 mb)
Winds: from the SW (230 degrees) at 6 MPH (5 knots; 2.6 m/s)
Visibility: 6 or more miles (10+ km)
Ceiling: 5500 feet AGL
Clouds: few clouds at 2800 feet AGL
scattered clouds at 3500 feet AGL
broken clouds at 5500 feet AGL
Weather: no significant weather observed at this time

METAR text: YMML 150500Z 21005KT 9999 FEW028 SCT034 BKN055 14/06 Q1020 FM0600 34008KT 9999 SCT035
Conditions at: YMML (MELBOURNE INTL A, AU) observed 0500 UTC 15 June 2019
Temperature: 14.0°C (57°F)
Dewpoint: 6.0°C (43°F) [RH = 58%]
Pressure (altimeter): 30.12 inches Hg (1020.0 mb)
Winds: from the SSW (210 degrees) at 6 MPH (5 knots; 2.6 m/s)
Visibility: 6 or more miles (10+ km)
Ceiling: 5500 feet AGL
Clouds: few clouds at 2800 feet AGL
scattered clouds at 3400 feet AGL
broken clouds at 5500 feet AGL
Weather: no significant weather observed at this time

Forecast for: AMD
Text: TAF AMD YMML 161106Z 1612/1718 36009KT 9999 FEW040 SCT060
Forecast period: 1200 UTC 16 June 2019 to 0000 UTC 17 June 2019
Forecast type: FROM: standard forecast or significant change
Winds: from the N (360 degrees) at 10 MPH (9 knots; 4.6 m/s)
Visibility: 6 or more miles 10+ km)
Ceiling: at least 12,000 feet AGL
Clouds: few clouds at 4000 feet AGL
scattered clouds at 6000 feet AGL
Weather: no significant weather forecast for this period
Text: FM170000 34012KT CAVOK
Forecast period: 0000 to 1300 UTC 17 June 2019
Forecast type: FROM: standard forecast or significant change
Winds: from the NNW (340 degrees) at 14 MPH (12 knots; 6.2 m/s)
Visibility: 6 or more miles 10+ km)
Ceiling: unknown
Clouds: missing
Weather: NSW  (no significant weather)
Text: FM171300 36015G25KT 9999 FEW010
Forecast period: 1300 to 1800 UTC 17 June 2019
Forecast type: FROM: standard forecast or significant change
Winds: from the N (360 degrees) at 17 MPH (15 knots; 7.7 m/s)
gusting to 29 MPH (25 knots; 12.9 m/s)
Visibility: 6 or more miles 10+ km)
Ceiling: at least 12,000 feet AGL
Clouds: few clouds at 1000 feet AGL
Weather: no significant weather forecast for this period